Time;durP1;ratioP1;P1;durP2;ratioP2;P2;SDS_P1;SDS_P2;PMS_P1;PMS_P2;Temp;Humidity;BMP_temperature;BMP_pressure;BME280_temperature;BME280_humidity;BME280_pressure;Samples;Min_cycle;Max_cycle;Signal;HPM_P1;HPM_P2
2022/03/10 00:01:13;;;;;;;14.23;9.40;;;8.10;41.50;;;;;;5042888;28;20029;-71
2022/03/10 00:03:38;;;;;;;12.85;8.93;;;8.10;41.60;;;;;;5046607;28;20044;-71
2022/03/10 00:06:04;;;;;;;13.43;9.52;;;8.10;41.60;;;;;;5042387;28;20029;-71
2022/03/10 00:08:29;;;;;;;15.45;10.75;;;8.10;41.70;;;;;;5042820;28;20052;-72
2022/03/10 00:10:55;;;;;;;13.57;9.05;;;8.00;41.70;;;;;;5041134;28;20605;-71
2022/03/10 00:13:20;;;;;;;14.10;10.02;;;8.00;41.80;;;;;;5044589;28;20032;-71
2022/03/10 00:15:46;;;;;;;12.77;8.27;;;8.00;41.90;;;;;;5044617;28;20033;-72
2022/03/10 00:18:11;;;;;;;12.15;7.88;;;8.00;42.00;;;;;;5043286;28;20078;-72
2022/03/10 00:20:37;;;;;;;12.30;8.68;;;8.00;41.90;;;;;;5041619;28;20036;-71
2022/03/10 00:23:02;;;;;;;11.90;7.93;;;7.90;41.90;;;;;;5041272;28;20060;-71
2022/03/10 00:25:28;;;;;;;11.35;7.68;;;7.90;42.00;;;;;;5042754;28;20033;-72
2022/03/10 00:27:53;;;;;;;13.57;8.65;;;7.90;42.10;;;;;;5041712;28;20025;-72
2022/03/10 00:30:19;;;;;;;11.70;7.47;;;7.90;42.20;;;;;;5043722;28;20028;-72
2022/03/10 00:32:50;;;;;;;12.95;8.70;;;7.90;42.30;;;;;;5043421;28;20014;-71
2022/03/10 00:35:23;;;;;;;12.52;8.68;;;7.80;42.40;;;;;;5045105;28;20150;-72
2022/03/10 00:37:49;;;;;;;12.95;8.27;;;7.80;42.50;;;;;;5041749;28;20029;-71
2022/03/10 00:40:16;;;;;;;13.38;8.90;;;7.80;42.50;;;;;;5039962;28;20112;-71
2022/03/10 00:42:42;;;;;;;13.25;8.25;;;7.80;42.70;;;;;;5041260;28;20030;-71
2022/03/10 00:45:09;;;;;;;12.40;7.90;;;7.70;42.80;;;;;;5041099;28;20017;-71
2022/03/10 00:47:35;;;;;;;13.05;8.25;;;7.70;42.80;;;;;;5041042;28;20029;-71
2022/03/10 00:50:01;;;;;;;12.55;7.70;;;7.70;42.90;;;;;;5038966;28;20032;-71
2022/03/10 00:52:27;;;;;;;12.55;8.30;;;7.70;43.00;;;;;;5040562;28;20026;-72
2022/03/10 00:54:53;;;;;;;13.75;8.90;;;7.60;43.00;;;;;;5042888;28;20036;-72
2022/03/10 00:57:19;;;;;;;12.77;8.23;;;7.60;43.20;;;;;;5040229;28;20052;-71
2022/03/10 00:59:44;;;;;;;10.88;7.45;;;7.60;43.20;;;;;;5043754;28;20021;-71
2022/03/10 01:02:10;;;;;;;12.88;8.63;;;7.60;43.20;;;;;;5040092;28;20033;-71
2022/03/10 01:04:36;;;;;;;11.93;7.80;;;7.60;43.30;;;;;;5041835;28;20029;-72
2022/03/10 01:07:02;;;;;;;10.85;6.85;;;7.50;43.30;;;;;;5047212;28;20471;-72
2022/03/10 01:09:27;;;;;;;13.82;9.18;;;7.50;43.30;;;;;;5040308;28;20695;-71
2022/03/10 01:11:53;;;;;;;11.63;7.95;;;7.50;43.40;;;;;;5045743;28;20036;-72
2022/03/10 01:14:19;;;;;;;13.93;9.60;;;7.50;44.10;;;;;;5044102;28;20640;-71
2022/03/10 01:16:44;;;;;;;12.70;8.55;;;7.40;43.60;;;;;;5044797;28;20086;-71
2022/03/10 01:19:10;;;;;;;11.82;8.10;;;7.40;43.70;;;;;;5039782;28;20383;-71
2022/03/10 01:21:36;;;;;;;10.40;7.60;;;7.40;43.70;;;;;;5041863;28;20032;-71
2022/03/10 01:24:01;;;;;;;11.70;7.68;;;7.40;43.70;;;;;;5042331;28;20030;-71
2022/03/10 01:26:27;;;;;;;11.65;7.65;;;7.40;43.70;;;;;;5044418;28;20373;-71
2022/03/10 01:28:52;;;;;;;11.88;8.15;;;7.40;43.90;;;;;;5043376;28;20025;-71
2022/03/10 01:31:18;;;;;;;11.30;7.78;;;7.30;44.10;;;;;;5035874;28;20071;-71
2022/03/10 01:33:43;;;;;;;12.27;7.72;;;7.20;44.10;;;;;;5039278;28;20029;-71
2022/03/10 01:36:09;;;;;;;12.13;7.53;;;7.20;44.20;;;;;;5041426;28;20576;-71
2022/03/10 01:38:39;;;;;;;13.13;8.43;;;7.20;44.20;;;;;;5039475;28;20541;-71
2022/03/10 01:41:05;;;;;;;10.90;7.32;;;7.20;44.30;;;;;;5039053;28;20033;-71
2022/03/10 01:43:31;;;;;;;12.80;8.73;;;7.10;44.40;;;;;;5050784;28;20113;-71
2022/03/10 01:45:57;;;;;;;13.20;8.05;;;7.10;44.50;;;;;;5048988;28;20107;-71
2022/03/10 01:48:23;;;;;;;13.23;8.80;;;7.10;44.60;;;;;;5045117;28;20030;-70
2022/03/10 01:50:49;;;;;;;16.05;9.93;;;7.10;44.70;;;;;;5045742;28;20031;-71
2022/03/10 01:53:15;;;;;;;13.88;8.43;;;7.00;44.90;;;;;;5039564;28;20028;-70
2022/03/10 01:55:41;;;;;;;13.82;9.55;;;7.00;45.00;;;;;;5037269;28;20168;-70
2022/03/10 01:58:07;;;;;;;12.90;8.80;;;7.00;45.10;;;;;;5041776;28;20025;-71
2022/03/10 02:00:32;;;;;;;12.73;9.15;;;7.00;45.10;;;;;;5042554;28;20035;-70
2022/03/10 02:02:58;;;;;;;13.77;9.43;;;7.00;45.20;;;;;;5041497;28;20479;-71
2022/03/10 02:05:24;;;;;;;14.18;9.13;;;6.90;45.20;;;;;;5041207;28;20051;-71
2022/03/10 02:10:35;;;;;;;12.82;8.15;;;6.90;45.40;;;;;;5039900;28;20052;-70
2022/03/10 02:13:00;;;;;;;13.60;8.30;;;6.90;45.40;;;;;;5043737;28;20423;-71
2022/03/10 02:18:13;;;;;;;13.40;9.02;;;6.90;45.40;;;;;;5042262;28;20130;-71
2022/03/10 02:20:39;;;;;;;14.00;9.20;;;6.90;45.60;;;;;;5042722;28;20126;-71
2022/03/10 02:23:07;;;;;;;16.98;10.32;;;6.80;45.70;;;;;;5043656;28;20124;-71
2022/03/10 02:25:33;;;;;;;15.48;9.55;;;6.80;45.90;;;;;;5036192;28;20392;-70
2022/03/10 02:27:59;;;;;;;16.48;10.52;;;6.80;46.00;;;;;;5044013;28;20025;-71
2022/03/10 02:30:28;;;;;;;15.40;10.05;;;6.70;46.00;;;;;;5041562;28;20371;-71
2022/03/10 02:32:54;;;;;;;15.70;10.40;;;6.70;46.10;;;;;;5045320;28;20029;-71
2022/03/10 02:35:19;;;;;;;11.77;7.50;;;6.70;46.30;;;;;;5040738;28;20688;-71
2022/03/10 02:37:46;;;;;;;14.25;9.10;;;6.80;46.20;;;;;;5045590;28;20028;-71
2022/03/10 02:40:12;;;;;;;17.05;11.02;;;6.70;46.10;;;;;;5038942;28;20461;-70
2022/03/10 02:42:39;;;;;;;16.02;9.73;;;6.70;46.30;;;;;;5041504;28;20540;-70
2022/03/10 02:45:06;;;;;;;13.38;8.85;;;6.70;46.20;;;;;;5040679;28;20025;-70
2022/03/10 02:47:31;;;;;;;10.65;7.50;;;6.80;46.10;;;;;;5042325;28;20039;-71
2022/03/10 02:49:57;;;;;;;15.07;10.45;;;6.80;46.10;;;;;;5039476;28;20025;-71
2022/03/10 02:52:23;;;;;;;13.10;9.05;;;6.70;46.20;;;;;;5044892;28;20041;-70
2022/03/10 02:54:49;;;;;;;9.98;6.80;;;6.70;46.20;;;;;;5039192;28;20026;-70
2022/03/10 02:57:15;;;;;;;12.43;8.27;;;6.70;46.10;;;;;;5048343;28;20033;-70
2022/03/10 02:59:41;;;;;;;12.02;7.80;;;6.70;46.10;;;;;;5041391;28;20393;-70
2022/03/10 03:02:07;;;;;;;14.48;8.93;;;6.70;46.20;;;;;;5048559;28;20033;-70
2022/03/10 03:04:33;;;;;;;11.35;7.50;;;6.70;46.20;;;;;;5045902;28;20059;-70
2022/03/10 03:06:59;;;;;;;12.80;8.60;;;6.70;46.20;;;;;;5035423;28;20466;-70
2022/03/10 03:09:24;;;;;;;13.10;7.78;;;6.70;46.20;;;;;;5048590;28;20517;-71
2022/03/10 03:11:50;;;;;;;13.35;8.88;;;6.70;46.30;;;;;;5035492;28;20025;-71
2022/03/10 03:14:16;;;;;;;13.95;7.75;;;6.60;46.30;;;;;;5049046;28;20021;-71
2022/03/10 03:16:43;;;;;;;11.75;8.00;;;6.60;46.40;;;;;;5052116;28;20029;-70
2022/03/10 03:19:09;;;;;;;12.10;8.25;;;6.60;46.50;;;;;;5051905;28;20037;-71
2022/03/10 03:21:35;;;;;;;12.18;8.38;;;6.60;46.50;;;;;;5051129;28;20031;-71
2022/03/10 03:24:01;;;;;;;13.82;9.07;;;6.60;46.50;;;;;;5049370;28;20056;-71
2022/03/10 03:26:26;;;;;;;14.85;9.30;;;6.60;46.60;;;;;;5036707;28;20020;-71
2022/03/10 03:28:52;;;;;;;13.38;8.20;;;6.50;46.60;;;;;;5046073;28;20033;-71
2022/03/10 03:31:18;;;;;;;13.50;8.80;;;6.50;46.60;;;;;;5045970;28;20540;-71
2022/03/10 03:33:43;;;;;;;12.05;7.72;;;6.50;46.70;;;;;;5045865;28;20456;-71
2022/03/10 03:36:09;;;;;;;13.15;8.68;;;6.50;46.70;;;;;;5042205;28;20112;-72
2022/03/10 03:38:35;;;;;;;14.43;9.32;;;6.40;46.70;;;;;;5042019;28;20040;-70
2022/03/10 03:41:01;;;;;;;12.18;8.23;;;6.40;46.80;;;;;;5043301;28;20025;-70
2022/03/10 03:43:27;;;;;;;14.13;9.02;;;6.40;46.80;;;;;;5060900;28;20017;-71
2022/03/10 03:45:52;;;;;;;13.32;8.98;;;6.40;47.00;;;;;;5043961;28;20028;-71
2022/03/10 03:48:18;;;;;;;16.20;8.93;;;6.30;47.00;;;;;;5040231;28;20470;-71
2022/03/10 03:50:43;;;;;;;14.63;9.48;;;6.30;47.10;;;;;;5048007;28;20029;-71
2022/03/10 03:53:09;;;;;;;10.65;7.65;;;6.30;47.20;;;;;;5044564;28;20059;-71
2022/03/10 03:55:35;;;;;;;13.63;8.95;;;6.30;47.10;;;;;;5044732;28;20067;-71
2022/03/10 03:58:00;;;;;;;11.73;7.85;;;6.30;47.20;;;;;;5042181;28;20056;-71
2022/03/10 04:00:26;;;;;;;13.32;8.77;;;6.30;47.80;;;;;;5046432;28;20423;-70
2022/03/10 04:02:53;;;;;;;14.15;9.25;;;6.30;47.20;;;;;;5043842;28;20074;-71
2022/03/10 04:05:19;;;;;;;15.93;8.80;;;6.20;47.10;;;;;;5044246;28;20456;-71
2022/03/10 04:07:44;;;;;;;13.65;8.88;;;6.30;47.20;;;;;;5041949;28;20060;-71
2022/03/10 04:10:10;;;;;;;13.15;8.60;;;6.30;47.20;;;;;;5044149;28;20023;-71
2022/03/10 04:12:36;;;;;;;13.00;8.40;;;6.30;47.20;;;;;;5042921;28;20040;-71
2022/03/10 04:15:04;;;;;;;14.65;8.98;;;6.30;47.20;;;;;;5043866;28;20035;-71
2022/03/10 04:17:29;;;;;;;14.85;9.20;;;6.30;47.20;;;;;;5037801;28;20060;-72
2022/03/10 04:19:55;;;;;;;13.57;8.93;;;6.20;47.30;;;;;;5044555;28;20049;-71
2022/03/10 04:22:20;;;;;;;17.08;9.52;;;6.20;47.40;;;;;;5042345;28;20056;-71
2022/03/10 04:24:46;;;;;;;14.90;9.85;;;6.20;47.50;;;;;;5045402;28;20044;-70
2022/03/10 04:27:12;;;;;;;14.38;9.02;;;6.10;47.60;;;;;;5045670;28;20040;-71
2022/03/10 04:29:38;;;;;;;13.50;9.20;;;6.00;47.80;;;;;;5049061;28;20017;-71
2022/03/10 04:32:04;;;;;;;12.55;8.32;;;6.00;47.90;;;;;;5047391;28;20091;-70
2022/03/10 04:34:29;;;;;;;14.75;9.13;;;6.00;47.90;;;;;;5044458;28;20079;-71
2022/03/10 04:36:55;;;;;;;14.20;9.15;;;5.90;48.10;;;;;;5044737;28;20029;-71
2022/03/10 04:39:21;;;;;;;13.40;8.45;;;5.90;48.20;;;;;;5049070;28;20021;-71
2022/03/10 04:41:47;;;;;;;11.82;8.15;;;5.80;48.40;;;;;;5046936;28;20104;-71
2022/03/10 04:44:12;;;;;;;12.02;8.10;;;5.70;48.40;;;;;;5043730;28;20021;-72
2022/03/10 04:46:38;;;;;;;12.20;8.32;;;5.70;48.50;;;;;;5056723;28;20021;-71
2022/03/10 04:49:03;;;;;;;13.38;8.45;;;5.70;48.60;;;;;;5046229;28;20021;-71
2022/03/10 04:51:29;;;;;;;13.95;8.07;;;5.70;48.60;;;;;;5047944;28;20380;-71
2022/03/10 04:53:55;;;;;;;13.85;8.82;;;5.70;48.70;;;;;;5042233;28;20472;-71
2022/03/10 04:56:20;;;;;;;14.82;9.52;;;5.70;48.70;;;;;;5035677;28;20065;-71
2022/03/10 04:58:46;;;;;;;14.25;9.50;;;5.70;48.60;;;;;;5038178;28;20014;-71
2022/03/10 05:01:12;;;;;;;16.95;10.48;;;5.70;48.60;;;;;;5040861;28;20399;-70
2022/03/10 05:03:38;;;;;;;15.23;10.02;;;5.70;48.70;;;;;;5041862;28;20013;-71
2022/03/10 05:06:04;;;;;;;12.80;8.40;;;5.70;48.70;;;;;;5043817;28;20024;-71
2022/03/10 05:08:30;;;;;;;13.82;9.18;;;5.60;48.70;;;;;;5040626;28;20021;-71
2022/03/10 05:10:55;;;;;;;12.55;8.02;;;5.60;48.70;;;;;;5042560;28;20025;-71
2022/03/10 05:13:21;;;;;;;15.00;9.25;;;5.60;49.30;;;;;;5046302;28;20029;-71
2022/03/10 05:15:47;;;;;;;12.82;8.35;;;5.60;48.70;;;;;;5039628;28;20060;-74
2022/03/10 05:18:12;;;;;;;12.85;8.48;;;5.60;48.60;;;;;;5045638;28;20033;-72
2022/03/10 05:20:38;;;;;;;12.45;8.30;;;5.60;48.60;;;;;;5044496;28;20021;-71
2022/03/10 05:23:05;;;;;;;13.40;8.70;;;5.60;48.60;;;;;;5041886;28;21112;-71
2022/03/10 05:25:39;;;;;;;15.52;9.98;;;5.70;48.60;;;;;;5042781;28;20021;-71
2022/03/10 05:28:07;;;;;;;15.55;9.43;;;5.60;48.70;;;;;;5039403;28;20115;-71
2022/03/10 05:30:33;;;;;;;16.35;9.93;;;5.50;48.80;;;;;;5039930;28;20356;-71
2022/03/10 05:32:59;;;;;;;15.75;10.05;;;5.50;48.80;;;;;;5042119;28;20033;-71
2022/03/10 05:35:27;;;;;;;14.35;9.90;;;5.50;48.80;;;;;;5043396;28;20191;-71
2022/03/10 05:37:53;;;;;;;15.85;9.95;;;5.50;48.90;;;;;;5036124;28;20136;-71
2022/03/10 05:40:20;;;;;;;15.82;10.55;;;5.50;48.90;;;;;;5042848;28;20151;-71
2022/03/10 05:42:47;;;;;;;14.18;8.45;;;5.50;48.70;;;;;;5040783;28;20422;-71
2022/03/10 05:45:14;;;;;;;19.10;11.68;;;5.60;48.70;;;;;;5038719;28;20135;-71
2022/03/10 05:47:41;;;;;;;16.60;10.85;;;5.50;48.70;;;;;;5038517;28;20017;-71
2022/03/10 05:50:08;;;;;;;16.98;11.57;;;5.50;49.10;;;;;;5043693;28;20025;-71
2022/03/10 05:52:33;;;;;;;25.40;14.05;;;5.50;48.80;;;;;;5040411;28;20048;-70
2022/03/10 05:54:59;;;;;;;17.13;11.23;;;5.50;48.70;;;;;;5036399;28;20651;-70
2022/03/10 05:57:24;;;;;;;15.25;10.10;;;5.50;48.60;;;;;;5044111;28;20025;-70
2022/03/10 05:59:50;;;;;;;15.05;9.20;;;5.50;48.50;;;;;;5045217;28;20025;-70
2022/03/10 06:02:16;;;;;;;15.70;9.70;;;5.50;48.40;;;;;;5039675;28;20055;-70
2022/03/10 06:04:42;;;;;;;16.08;9.20;;;5.50;48.30;;;;;;5039939;28;20028;-71
2022/03/10 06:07:08;;;;;;;19.40;11.98;;;5.50;48.30;;;;;;5045475;28;20361;-70
2022/03/10 06:09:34;;;;;;;15.98;10.40;;;5.50;48.30;;;;;;5046068;28;20017;-71
2022/03/10 06:11:59;;;;;;;18.73;11.90;;;5.50;48.90;;;;;;5046058;28;20514;-70
2022/03/10 06:14:25;;;;;;;18.02;11.82;;;5.50;48.20;;;;;;5062888;28;20029;-70
2022/03/10 06:16:50;;;;;;;15.85;10.45;;;5.50;48.10;;;;;;5049326;28;20461;-70
2022/03/10 06:19:16;;;;;;;19.50;12.15;;;5.50;48.00;;;;;;5047878;28;20049;-71
2022/03/10 06:21:42;;;;;;;14.90;9.73;;;5.50;47.90;;;;;;5048236;28;20515;-70
2022/03/10 06:24:07;;;;;;;17.98;11.75;;;5.60;47.80;;;;;;5038585;28;20026;-71
2022/03/10 06:26:36;;;;;;;16.60;10.30;;;5.60;47.70;;;;;;5042530;28;20033;-71
2022/03/10 06:29:05;;;;;;;17.05;10.80;;;5.60;47.60;;;;;;5046057;28;20140;-71
2022/03/10 06:31:31;;;;;;;15.65;9.45;;;5.70;47.60;;;;;;5042141;28;20400;-71
2022/03/10 06:34:00;;;;;;;13.73;8.57;;;5.70;47.40;;;;;;5049026;28;20017;-70
2022/03/10 06:36:26;;;;;;;15.18;9.75;;;5.80;47.40;;;;;;5041262;28;20037;-70
2022/03/10 06:38:52;;;;;;;16.75;10.93;;;5.80;47.30;;;;;;5042791;28;20040;-70
2022/03/10 06:41:18;;;;;;;15.63;10.60;;;5.80;47.20;;;;;;5037545;28;20428;-71
2022/03/10 06:43:44;;;;;;;15.98;10.63;;;5.80;47.00;;;;;;5042868;28;20017;-70
2022/03/10 06:46:09;;;;;;;16.27;10.25;;;5.90;47.00;;;;;;5039677;28;20028;-70
2022/03/10 06:48:35;;;;;;;19.60;11.98;;;5.90;46.90;;;;;;5039684;28;20033;-70
2022/03/10 06:51:01;;;;;;;18.95;12.25;;;5.90;46.80;;;;;;5039605;28;20050;-70
2022/03/10 06:53:27;;;;;;;13.93;9.82;;;5.90;46.70;;;;;;5038847;28;20543;-70
2022/03/10 06:55:52;;;;;;;16.73;10.93;;;6.00;46.60;;;;;;5043589;28;20047;-71
2022/03/10 06:58:19;;;;;;;14.02;9.43;;;6.00;46.50;;;;;;5041304;28;20047;-71
2022/03/10 07:00:44;;;;;;;16.98;10.32;;;6.10;46.50;;;;;;5040742;28;20390;-71
2022/03/10 07:03:10;;;;;;;18.88;12.05;;;6.20;46.50;;;;;;5035650;28;20075;-71
2022/03/10 07:05:36;;;;;;;18.80;11.35;;;6.20;46.20;;;;;;5040341;28;20621;-71
2022/03/10 07:08:02;;;;;;;20.08;11.55;;;6.30;46.20;;;;;;5037294;28;20049;-70
2022/03/10 07:10:27;;;;;;;15.38;10.20;;;6.30;46.00;;;;;;5036409;28;20025;-70
2022/03/10 07:12:54;;;;;;;18.48;11.70;;;6.40;45.90;;;;;;5037797;28;20507;-70
2022/03/10 07:15:20;;;;;;;16.48;11.38;;;6.50;45.80;;;;;;5037475;28;20028;-71
2022/03/10 07:17:45;;;;;;;13.68;9.50;;;6.50;45.70;;;;;;5037768;28;20025;-70
2022/03/10 07:20:14;;;;;;;15.23;9.80;;;6.70;45.60;;;;;;5038800;28;20123;-71
2022/03/10 07:22:39;;;;;;;15.45;10.50;;;6.70;45.40;;;;;;5035472;28;20166;-71
2022/03/10 07:25:06;;;;;;;19.08;12.23;;;6.80;45.20;;;;;;5033657;28;20030;-71
2022/03/10 07:27:32;;;;;;;19.02;12.35;;;6.80;45.20;;;;;;5041731;28;20159;-71
2022/03/10 07:29:57;;;;;;;19.20;12.27;;;6.90;45.10;;;;;;5034600;28;20488;-70
2022/03/10 07:32:26;;;;;;;16.45;11.13;;;6.90;45.00;;;;;;5040049;28;20117;-71
2022/03/10 07:34:51;;;;;;;21.90;12.57;;;7.00;45.00;;;;;;5034534;28;20028;-71
2022/03/10 07:37:17;;;;;;;19.00;12.27;;;7.00;44.80;;;;;;5034943;28;20036;-71
2022/03/10 07:39:42;;;;;;;17.38;11.55;;;7.10;44.80;;;;;;5039610;28;20928;-70
2022/03/10 07:42:08;;;;;;;16.52;11.40;;;7.10;44.80;;;;;;5059667;28;20485;-71
2022/03/10 07:44:34;;;;;;;15.15;9.60;;;7.20;44.70;;;;;;5037926;28;20101;-71
2022/03/10 07:46:59;;;;;;;18.58;12.23;;;7.30;44.60;;;;;;5036838;28;20139;-72
2022/03/10 07:49:25;;;;;;;17.48;10.73;;;7.30;44.40;;;;;;5040805;28;20033;-72
2022/03/10 07:51:50;;;;;;;20.00;12.30;;;7.30;44.50;;;;;;5039406;28;20029;-70
2022/03/10 07:54:16;;;;;;;17.48;11.07;;;7.30;44.40;;;;;;5036474;28;20025;-71
2022/03/10 07:56:42;;;;;;;17.20;11.63;;;7.40;44.40;;;;;;5036937;28;20074;-71
2022/03/10 07:59:07;;;;;;;21.35;12.68;;;7.50;44.30;;;;;;5039855;28;20076;-76
2022/03/10 08:01:33;;;;;;;20.27;12.48;;;7.50;44.30;;;;;;5041809;28;20391;-77
2022/03/10 08:03:59;;;;;;;19.23;13.13;;;7.60;44.30;;;;;;5036686;28;20026;-77
2022/03/10 08:06:26;;;;;;;19.83;12.95;;;7.60;44.20;;;;;;5047863;28;20033;-77
2022/03/10 08:08:51;;;;;;;21.63;13.20;;;7.70;44.30;;;;;;5041819;28;20017;-78
2022/03/10 08:11:17;;;;;;;17.70;11.90;;;7.70;44.20;;;;;;5045062;28;20036;-77
2022/03/10 08:13:43;;;;;;;18.08;11.85;;;7.70;44.20;;;;;;5040629;28;20017;-77
2022/03/10 08:16:09;;;;;;;17.25;11.40;;;7.80;44.30;;;;;;5042740;28;20422;-78
2022/03/10 08:18:34;;;;;;;20.48;12.60;;;7.90;44.30;;;;;;5038782;28;20068;-78
2022/03/10 08:21:00;;;;;;;19.65;13.13;;;8.00;44.00;;;;;;5041172;28;20033;-78
2022/03/10 08:23:26;;;;;;;15.77;10.45;;;8.10;44.00;;;;;;5043703;28;20013;-78
2022/03/10 08:25:52;;;;;;;19.55;13.48;;;8.10;43.90;;;;;;5044331;28;20037;-78
2022/03/10 08:28:18;;;;;;;19.85;13.18;;;8.20;43.90;;;;;;5041053;28;20025;-78
2022/03/10 08:30:43;;;;;;;17.40;12.18;;;8.20;43.90;;;;;;5044916;28;20094;-79
2022/03/10 08:33:09;;;;;;;18.40;12.75;;;8.20;44.00;;;;;;5041611;28;20451;-78
2022/03/10 08:35:35;;;;;;;16.98;11.38;;;8.30;43.90;;;;;;5040747;28;20567;-78
2022/03/10 08:38:00;;;;;;;18.73;12.52;;;8.40;43.90;;;;;;5039417;28;20028;-78
2022/03/10 08:40:26;;;;;;;19.40;12.82;;;8.40;43.70;;;;;;5038695;28;20049;-79
2022/03/10 08:42:52;;;;;;;18.70;12.85;;;8.40;43.90;;;;;;5038880;28;20472;-78
2022/03/10 08:45:18;;;;;;;16.55;10.80;;;8.40;43.90;;;;;;5037246;28;20108;-78
2022/03/10 08:47:44;;;;;;;19.38;12.40;;;8.50;43.90;;;;;;5043524;28;20021;-78
2022/03/10 08:50:11;;;;;;;19.48;12.73;;;8.60;44.00;;;;;;5038399;28;20083;-77
2022/03/10 08:52:37;;;;;;;20.77;13.55;;;8.60;43.80;;;;;;5039897;28;20016;-77
2022/03/10 08:55:05;;;;;;;21.42;12.75;;;8.70;43.90;;;;;;5051490;28;20563;-77
2022/03/10 08:57:31;;;;;;;20.30;13.10;;;8.70;44.00;;;;;;5043986;28;20033;-77
2022/03/10 08:59:57;;;;;;;18.23;11.52;;;8.80;44.00;;;;;;5039385;28;20040;-73
2022/03/10 09:02:22;;;;;;;19.77;13.30;;;8.90;44.10;;;;;;5037003;28;20060;-72
2022/03/10 09:04:48;;;;;;;17.77;12.18;;;9.00;44.30;;;;;;5048614;28;20120;-73
2022/03/10 09:07:13;;;;;;;18.33;11.90;;;9.00;44.00;;;;;;5038687;28;22084;-73
2022/03/10 09:09:39;;;;;;;21.05;13.68;;;9.00;44.00;;;;;;5040139;28;20029;-73
2022/03/10 09:12:12;;;;;;;19.52;14.23;;;9.10;44.20;;;;;;5044337;28;20064;-72
2022/03/10 09:14:38;;;;;;;19.63;12.90;;;9.20;44.70;;;;;;5043024;28;20057;-73
2022/03/10 09:17:04;;;;;;;18.98;12.73;;;9.20;44.60;;;;;;5046616;28;20076;-73
2022/03/10 09:19:29;;;;;;;22.85;14.30;;;9.30;44.50;;;;;;5047813;28;20032;-72
2022/03/10 09:21:55;;;;;;;16.63;11.40;;;9.40;44.40;;;;;;5049983;28;20025;-72
2022/03/10 09:24:20;;;;;;;20.83;13.75;;;9.40;44.40;;;;;;5044969;28;20036;-72
2022/03/10 09:26:46;;;;;;;20.75;13.75;;;9.50;44.40;;;;;;5049609;28;20045;-71
2022/03/10 09:29:11;;;;;;;21.50;14.02;;;9.50;44.50;;;;;;5048221;28;20033;-72
2022/03/10 09:31:37;;;;;;;21.58;13.95;;;9.50;44.50;;;;;;5045032;28;20098;-73
2022/03/10 09:34:04;;;;;;;19.95;13.18;;;9.60;45.20;;;;;;5041427;28;20063;-72
2022/03/10 09:36:32;;;;;;;16.65;11.73;;;9.70;44.50;;;;;;5046284;28;20044;-73
2022/03/10 09:38:58;;;;;;;19.92;13.45;;;9.70;44.50;;;;;;5047179;28;20470;-73
2022/03/10 09:41:24;;;;;;;17.73;12.32;;;9.80;44.70;;;;;;5045714;28;20039;-73
2022/03/10 09:43:50;;;;;;;16.52;12.00;;;9.90;44.40;;;;;;5045421;28;20024;-72
2022/03/10 09:46:16;;;;;;;22.42;14.18;;;10.00;44.30;;;;;;5048185;28;20025;-72
2022/03/10 09:48:42;;;;;;;18.92;12.35;;;10.10;44.20;;;;;;5044744;28;20568;-72
2022/03/10 09:51:09;;;;;;;20.48;13.60;;;10.20;44.10;;;;;;5046864;28;20115;-72
2022/03/10 09:53:35;;;;;;;16.83;12.48;;;10.30;44.00;;;;;;5048373;28;20043;-72
2022/03/10 09:56:03;;;;;;;20.85;14.13;;;10.40;43.90;;;;;;5047394;28;20036;-73
2022/03/10 09:58:30;;;;;;;20.10;13.15;;;10.40;43.80;;;;;;5047530;28;20498;-73
2022/03/10 10:01:03;;;;;;;19.73;13.57;;;10.50;43.60;;;;;;5043920;28;20417;-73
2022/03/10 10:03:28;;;;;;;17.25;11.13;;;10.60;44.40;;;;;;5041682;28;20044;-72
2022/03/10 10:05:58;;;;;;;23.38;15.00;;;10.70;43.90;;;;;;5042452;28;20116;-71
2022/03/10 10:08:24;;;;;;;22.38;14.38;;;10.80;43.70;;;;;;5048580;28;20034;-71
2022/03/10 10:10:55;;;;;;;23.40;14.25;;;10.80;44.00;;;;;;5043115;28;20095;-69
2022/03/10 10:13:34;;;;;;;19.17;13.10;;;11.00;43.90;;;;;;5036667;28;20545;-71
2022/03/10 10:16:02;;;;;;;17.90;12.02;;;11.00;43.50;;;;;;5043142;28;20318;-70
2022/03/10 10:18:29;;;;;;;20.25;13.02;;;11.10;43.50;;;;;;5045082;28;20021;-71
2022/03/10 10:20:56;;;;;;;22.63;13.52;;;11.20;43.40;;;;;;5045330;28;20032;-71
2022/03/10 10:23:30;;;;;;;27.10;16.05;;;11.30;43.40;;;;;;5045057;28;20117;-71
2022/03/10 10:26:01;;;;;;;21.58;13.60;;;11.30;43.10;;;;;;5045823;28;20028;-72
2022/03/10 10:28:32;;;;;;;20.48;13.93;;;11.30;43.20;;;;;;5046043;28;20017;-71
2022/03/10 10:31:12;;;;;;;18.15;12.07;;;11.40;43.30;;;;;;5047011;28;20060;-71
2022/03/10 10:33:41;;;;;;;18.23;12.57;;;11.60;43.30;;;;;;5037599;28;20076;-70
2022/03/10 10:36:17;;;;;;;19.05;13.18;;;11.60;43.20;;;;;;5041047;28;20040;-71
2022/03/10 10:38:45;;;;;;;19.00;12.25;;;11.70;43.30;;;;;;5040863;28;20064;-71
2022/03/10 10:41:20;;;;;;;20.17;12.75;;;11.70;43.40;;;;;;5041519;28;20036;-71
2022/03/10 10:43:49;;;;;;;18.70;12.52;;;11.90;43.30;;;;;;5043165;28;20390;-71
2022/03/10 10:46:51;;;;;;;19.40;13.57;;;12.00;43.30;;;;;;5042577;28;20031;-71
2022/03/10 10:49:19;;;;;;;21.77;14.43;;;12.00;43.20;;;;;;5064485;28;20029;-71
2022/03/10 10:51:45;;;;;;;20.52;13.32;;;12.10;42.90;;;;;;5046547;28;20033;-71
2022/03/10 10:54:21;;;;;;;21.13;14.35;;;12.20;42.90;;;;;;5040583;28;20023;-71
2022/03/10 10:56:48;;;;;;;19.13;12.23;;;12.30;42.80;;;;;;5039963;28;20110;-72
2022/03/10 10:59:36;;;;;;;22.60;14.00;;;12.30;42.70;;;;;;5041385;28;20017;-71
2022/03/10 11:02:18;;;;;;;20.90;13.88;;;12.30;42.50;;;;;;5039372;28;20029;-71
2022/03/10 11:04:46;;;;;;;21.10;14.35;;;12.40;42.80;;;;;;5041725;28;20029;-71
2022/03/10 11:07:13;;;;;;;21.52;13.85;;;12.40;42.70;;;;;;5042397;28;20928;-72
2022/03/10 11:09:41;;;;;;;20.75;14.23;;;12.40;42.70;;;;;;5045454;28;20029;-72
2022/03/10 11:12:09;;;;;;;19.90;13.35;;;12.50;42.60;;;;;;5043381;28;20040;-71
2022/03/10 11:14:35;;;;;;;19.63;13.02;;;12.60;42.90;;;;;;5046942;28;20510;-72
2022/03/10 11:17:01;;;;;;;17.90;10.75;;;12.60;42.70;;;;;;5046430;28;20025;-72
2022/03/10 11:19:32;;;;;;;16.05;11.00;;;12.80;42.80;;;;;;5047004;28;20491;-71
2022/03/10 11:22:10;;;;;;;22.17;13.52;;;12.90;42.70;;;;;;5048138;28;20032;-72
2022/03/10 11:24:39;;;;;;;20.05;13.52;;;13.00;42.40;;;;;;5046970;28;20095;-71
2022/03/10 11:27:08;;;;;;;20.58;14.07;;;13.00;42.20;;;;;;5047327;28;20407;-73
2022/03/10 11:29:35;;;;;;;21.00;13.93;;;13.00;42.30;;;;;;5045276;28;20026;-72
2022/03/10 11:32:04;;;;;;;20.00;13.15;;;13.10;42.20;;;;;;5051288;28;20028;-72
2022/03/10 11:34:48;;;;;;;18.30;11.90;;;13.10;42.10;;;;;;5050594;28;20060;-72
2022/03/10 11:37:35;;;;;;;24.13;15.00;;;13.20;42.10;;;;;;5052279;28;20041;-73
2022/03/10 11:40:02;;;;;;;20.58;11.95;;;13.30;41.70;;;;;;5048301;28;20029;-72
2022/03/10 11:42:30;;;;;;;21.40;13.38;;;13.40;41.80;;;;;;5040986;28;20079;-73
2022/03/10 11:45:14;;;;;;;20.65;12.98;;;13.60;41.70;;;;;;5035950;28;20507;-73
2022/03/10 11:47:40;;;;;;;21.27;14.45;;;13.70;41.00;;;;;;5045758;28;20025;-73
2022/03/10 11:50:24;;;;;;;21.05;14.13;;;13.80;40.20;;;;;;5047711;28;20033;-72
2022/03/10 11:52:53;;;;;;;20.08;13.80;;;13.80;40.20;;;;;;5045566;28;20031;-71
2022/03/10 11:55:20;;;;;;;20.90;14.82;;;13.90;40.20;;;;;;5043969;28;20030;-72
2022/03/10 11:57:55;;;;;;;19.05;12.32;;;13.80;39.90;;;;;;5040576;28;20026;-72
2022/03/10 12:00:44;;;;;;;20.63;13.80;;;14.00;39.80;;;;;;5043380;28;20129;-72
2022/03/10 12:03:17;;;;;;;18.52;12.85;;;14.10;39.50;;;;;;5044498;28;20028;-73
2022/03/10 12:06:03;;;;;;;23.17;14.35;;;14.10;39.40;;;;;;5043715;28;20058;-72
2022/03/10 12:08:31;;;;;;;19.67;13.65;;;14.20;39.50;;;;;;5044600;28;20044;-73
2022/03/10 12:10:58;;;;;;;20.75;13.10;;;14.30;39.50;;;;;;5043722;28;20598;-73
2022/03/10 12:13:28;;;;;;;19.25;12.68;;;14.30;39.10;;;;;;5037962;28;20040;-72
2022/03/10 12:15:54;;;;;;;20.40;13.52;;;14.40;39.00;;;;;;5044703;28;20156;-72
2022/03/10 12:18:25;;;;;;;23.45;14.80;;;14.40;38.70;;;;;;5043563;28;20052;-73
2022/03/10 12:20:56;;;;;;;20.67;13.38;;;14.40;38.80;;;;;;5043212;28;20104;-73
2022/03/10 12:23:25;;;;;;;18.73;12.80;;;14.50;38.50;;;;;;5043329;28;20104;-73
2022/03/10 12:25:57;;;;;;;23.00;14.15;;;14.60;38.40;;;;;;5044471;28;20054;-73
2022/03/10 12:28:39;;;;;;;15.43;11.10;;;14.60;37.90;;;;;;5044467;28;20047;-73
2022/03/10 12:31:14;;;;;;;19.75;13.30;;;14.70;38.30;;;;;;5040824;28;20336;-73
2022/03/10 12:34:01;;;;;;;18.02;11.95;;;14.80;37.80;;;;;;5046659;28;20107;-72
2022/03/10 12:36:28;;;;;;;22.63;14.50;;;15.10;37.30;;;;;;5037447;28;20037;-71
2022/03/10 12:38:54;;;;;;;19.52;13.38;;;15.00;36.90;;;;;;5040205;28;20041;-71
2022/03/10 12:41:19;;;;;;;22.50;15.13;;;15.10;36.90;;;;;;5038421;28;20033;-71
2022/03/10 12:43:55;;;;;;;19.95;13.40;;;15.30;36.20;;;;;;5043310;28;20407;-71